Time;durP1;ratioP1;P1;durP2;ratioP2;P2;SDS_P1;SDS_P2;PMS_P1;PMS_P2;Temp;Humidity;BMP_temperature;BMP_pressure;BME280_temperature;BME280_humidity;BME280_pressure;Samples;Min_cycle;Max_cycle;Signal;HPM_P1;HPM_P2
2022/02/11 00:07:36;;;;;;;10.00;7.30;;;;;;;;;;2611534;47;20978;-76
2022/02/11 00:10:04;;;;;;;8.23;6.00;;;;;;;;;;2611801;47;20435;-76
2022/02/11 00:12:31;;;;;;;8.77;6.20;;;;;;;;;;2613601;39;21388;-75
2022/02/11 00:17:23;;;;;;;15.20;8.23;;;;;;;;;;2612972;51;21062;-76
2022/02/11 00:19:49;;;;;;;14.43;7.63;;;;;;;;;;2613487;54;20535;-76
2022/02/11 00:22:16;;;;;;;11.10;7.50;;;;;;;;;;2612918;47;20511;-76
2022/02/11 00:24:42;;;;;;;12.50;8.90;;;;;;;;;;2613575;54;20420;-74
2022/02/11 00:30:32;;;;;;;11.47;7.40;;;;;;;;;;2614184;54;20558;-75
2022/02/11 00:33:19;;;;;;;13.83;8.33;;;;;;;;;;2614062;39;21399;-76
2022/02/11 00:35:44;;;;;;;12.30;9.83;;;;;;;;;;2614796;54;20442;-76
2022/02/11 00:38:18;;;;;;;12.93;9.00;;;;;;;;;;2612936;54;20394;-76
2022/02/11 01:02:50;;;;;;;17.77;12.90;;;;;;;;;;2614112;54;20416;-75
2022/02/11 01:05:17;;;;;;;24.33;13.53;;;;;;;;;;2613642;47;20975;-76
2022/02/11 01:07:43;;;;;;;15.57;11.43;;;;;;;;;;2613196;54;20443;-76
2022/02/11 01:10:10;;;;;;;18.07;12.73;;;;;;;;;;2613598;47;20959;-76
2022/02/11 01:12:39;;;;;;;22.00;14.47;;;;;;;;;;2613902;47;20444;-76
2022/02/11 01:15:06;;;;;;;15.83;13.60;;;;;;;;;;2614874;54;20419;-75
2022/02/11 01:17:37;;;;;;;19.90;14.37;;;;;;;;;;2614557;47;20395;-76
2022/02/11 01:38:24;;;;;;;28.83;13.80;;;;;;;;;;2616189;54;20542;-76
2022/02/11 01:46:31;;;;;;;17.43;12.77;;;;;;;;;;2616583;54;20429;-75
2022/02/11 01:54:29;;;;;;;21.83;16.30;;;;;;;;;;2616205;54;20407;-76
2022/02/11 01:57:03;;;;;;;21.73;15.40;;;;;;;;;;2616177;54;20415;-76
2022/02/11 02:02:55;;;;;;;28.73;15.97;;;;;;;;;;2615081;54;21309;-76
2022/02/11 02:30:27;;;;;;;21.13;15.20;;;;;;;;;;2613770;54;20999;-75
2022/02/11 02:35:30;;;;;;;23.23;15.43;;;;;;;;;;2613250;54;20415;-75
2022/02/11 03:34:58;;;;;;;30.23;16.23;;;;;;;;;;2613789;54;20531;-76
2022/02/11 04:56:24;;;;;;;24.83;15.40;;;;;;;;;;2614332;54;20427;-75
2022/02/11 05:01:35;;;;;;;24.00;17.47;;;;;;;;;;2613958;54;20422;-76
2022/02/11 05:04:01;;;;;;;21.17;14.33;;;;;;;;;;2614553;47;20415;-76
2022/02/11 05:06:27;;;;;;;27.97;16.77;;;;;;;;;;2614191;54;20446;-76
2022/02/11 05:08:54;;;;;;;24.13;16.47;;;;;;;;;;2613735;54;20502;-75
2022/02/11 05:11:20;;;;;;;29.63;17.10;;;;;;;;;;2613784;54;20455;-76
2022/02/11 05:13:46;;;;;;;20.80;15.10;;;;;;;;;;2614374;54;20420;-76
2022/02/11 05:16:13;;;;;;;20.37;15.20;;;;;;;;;;2613714;47;20995;-75
2022/02/11 05:18:39;;;;;;;28.30;15.53;;;;;;;;;;2614939;39;20819;-76
2022/02/11 05:21:05;;;;;;;26.50;16.10;;;;;;;;;;2614850;54;20416;-75
2022/02/11 05:23:32;;;;;;;22.30;15.83;;;;;;;;;;2613938;54;20475;-75
2022/02/11 05:25:58;;;;;;;22.27;13.57;;;;;;;;;;2613855;54;20419;-75
2022/02/11 05:28:25;;;;;;;24.67;17.30;;;;;;;;;;2613978;47;20495;-76
2022/02/11 05:30:51;;;;;;;20.17;15.70;;;;;;;;;;2613127;47;20457;-75
2022/02/11 05:33:20;;;;;;;26.10;16.87;;;;;;;;;;2614808;54;20419;-76
2022/02/11 05:35:46;;;;;;;22.50;16.37;;;;;;;;;;2614097;47;20454;-76
2022/02/11 05:38:12;;;;;;;25.57;16.27;;;;;;;;;;2613498;54;20424;-75
2022/02/11 05:40:39;;;;;;;30.20;13.87;;;;;;;;;;2613982;54;20409;-75
2022/02/11 05:43:06;;;;;;;20.70;14.00;;;;;;;;;;2613751;54;20419;-76
2022/02/11 05:45:32;;;;;;;22.50;14.30;;;;;;;;;;2613705;54;20445;-76
2022/02/11 05:47:58;;;;;;;31.03;14.37;;;;;;;;;;2614001;54;21209;-75
2022/02/11 05:50:25;;;;;;;29.50;15.30;;;;;;;;;;2613163;54;20533;-76
2022/02/11 05:52:51;;;;;;;26.70;14.50;;;;;;;;;;2614116;39;20957;-75
2022/02/11 05:55:17;;;;;;;24.20;12.40;;;;;;;;;;2613339;54;20442;-76
2022/02/11 05:57:43;;;;;;;24.63;13.93;;;;;;;;;;2614061;54;20424;-77
2022/02/11 06:00:10;;;;;;;35.70;12.50;;;;;;;;;;2613399;39;21179;-75
2022/02/11 06:02:39;;;;;;;24.50;14.17;;;;;;;;;;2613407;54;20554;-76
2022/02/11 06:05:05;;;;;;;20.90;12.17;;;;;;;;;;2614150;47;20534;-76
2022/02/11 06:07:31;;;;;;;19.33;11.17;;;;;;;;;;2614765;47;20416;-75
2022/02/11 06:09:58;;;;;;;26.63;11.83;;;;;;;;;;2614968;54;20423;-76
2022/02/11 06:12:25;;;;;;;15.20;8.53;;;;;;;;;;2614777;54;20780;-76
2022/02/11 06:14:52;;;;;;;13.13;8.70;;;;;;;;;;2613735;39;20888;-75
2022/02/11 06:17:20;;;;;;;20.73;9.97;;;;;;;;;;2614749;47;20398;-75
2022/02/11 06:19:48;;;;;;;19.60;10.83;;;;;;;;;;2614170;54;20411;-76
2022/02/11 06:22:15;;;;;;;14.73;9.57;;;;;;;;;;2615933;39;20856;-76
2022/02/11 06:24:41;;;;;;;16.13;9.27;;;;;;;;;;2615328;54;20400;-75
2022/02/11 06:27:31;;;;;;;12.33;8.80;;;;;;;;;;2614579;54;20427;-76
2022/02/11 06:29:57;;;;;;;14.20;8.27;;;;;;;;;;2612133;47;20432;-76
2022/02/11 06:32:23;;;;;;;12.83;7.07;;;;;;;;;;2613470;47;20442;-75
2022/02/11 06:34:52;;;;;;;16.57;6.87;;;;;;;;;;2613399;47;20861;-76
2022/02/11 06:37:18;;;;;;;10.53;6.80;;;;;;;;;;2614499;31;20934;-75
2022/02/11 06:39:44;;;;;;;10.50;6.03;;;;;;;;;;2613321;54;20415;-76
2022/02/11 06:42:10;;;;;;;14.83;8.53;;;;;;;;;;2613745;54;20412;-76
2022/02/11 06:44:36;;;;;;;21.30;8.07;;;;;;;;;;2612235;54;20997;-75
2022/02/11 06:47:03;;;;;;;17.83;7.53;;;;;;;;;;2613110;54;20422;-75
2022/02/11 06:49:29;;;;;;;18.50;7.90;;;;;;;;;;2613208;54;20394;-75
2022/02/11 06:51:55;;;;;;;11.97;6.53;;;;;;;;;;2613372;54;20424;-75
2022/02/11 06:54:22;;;;;;;19.90;6.80;;;;;;;;;;2612660;54;20491;-76
2022/02/11 06:56:48;;;;;;;26.43;7.77;;;;;;;;;;2613709;47;20424;-75
2022/02/11 06:59:14;;;;;;;12.43;6.90;;;;;;;;;;2613271;47;20461;-75
2022/02/11 07:01:40;;;;;;;10.93;5.97;;;;;;;;;;2613384;54;20544;-76
2022/02/11 07:04:07;;;;;;;21.97;7.17;;;;;;;;;;2613359;39;20827;-75
2022/02/11 07:06:33;;;;;;;26.67;6.40;;;;;;;;;;2613718;54;20424;-74
2022/02/11 07:08:59;;;;;;;11.77;5.70;;;;;;;;;;2614230;54;20551;-75
2022/02/11 07:11:26;;;;;;;14.30;7.17;;;;;;;;;;2613230;47;20427;-75
2022/02/11 07:13:52;;;;;;;13.30;5.80;;;;;;;;;;2613426;48;20435;-75
2022/02/11 07:16:18;;;;;;;9.70;4.50;;;;;;;;;;2614403;54;20392;-76
2022/02/11 07:18:44;;;;;;;10.03;5.20;;;;;;;;;;2613902;46;20543;-75
2022/02/11 07:21:11;;;;;;;10.87;4.30;;;;;;;;;;2612740;51;20436;-76
2022/02/11 07:23:37;;;;;;;12.97;5.57;;;;;;;;;;2613755;54;20407;-75
2022/02/11 07:26:03;;;;;;;15.97;4.13;;;;;;;;;;2613789;54;20547;-75
2022/02/11 07:28:29;;;;;;;12.50;4.10;;;;;;;;;;2614630;54;21487;-75
2022/02/11 07:30:58;;;;;;;9.50;3.80;;;;;;;;;;2614452;54;20507;-75
2022/02/11 07:33:24;;;;;;;9.50;3.40;;;;;;;;;;2614405;54;20416;-76
2022/02/11 07:35:50;;;;;;;11.00;3.50;;;;;;;;;;2615389;39;20787;-75
2022/02/11 07:38:16;;;;;;;15.53;3.97;;;;;;;;;;2613814;47;20430;-75
2022/02/11 07:40:43;;;;;;;12.10;3.40;;;;;;;;;;2612896;54;20416;-75
2022/02/11 07:43:09;;;;;;;11.10;5.30;;;;;;;;;;2613623;47;20440;-75
2022/02/11 07:45:37;;;;;;;17.73;4.10;;;;;;;;;;2613794;54;20415;-76
2022/02/11 07:48:04;;;;;;;10.60;2.73;;;;;;;;;;2612631;49;21015;-75
2022/02/11 07:50:30;;;;;;;9.93;3.60;;;;;;;;;;2613932;47;20972;-75
2022/02/11 07:52:57;;;;;;;10.47;2.10;;;;;;;;;;2614562;54;20428;-75
2022/02/11 07:55:23;;;;;;;6.43;2.93;;;;;;;;;;2614119;54;20404;-75
2022/02/11 07:57:49;;;;;;;14.90;4.20;;;;;;;;;;2614316;54;20415;-76
2022/02/11 08:00:16;;;;;;;12.60;3.43;;;;;;;;;;2613424;54;20511;-75
2022/02/11 08:02:43;;;;;;;8.50;3.00;;;;;;;;;;2612747;54;20429;-76
2022/02/11 08:05:10;;;;;;;6.20;3.10;;;;;;;;;;2613746;47;20426;-75
2022/02/11 08:07:37;;;;;;;6.10;3.10;;;;;;;;;;2613920;47;20499;-76
2022/02/11 08:10:03;;;;;;;11.77;3.37;;;;;;;;;;2613772;54;20946;-75
2022/02/11 08:12:34;;;;;;;9.83;3.53;;;;;;;;;;2613688;54;20408;-76
2022/02/11 08:15:01;;;;;;;6.80;2.93;;;;;;;;;;2613458;47;20438;-75
2022/02/11 08:17:27;;;;;;;13.13;3.37;;;;;;;;;;2613422;47;20422;-75
2022/02/11 08:19:53;;;;;;;7.67;2.90;;;;;;;;;;2613730;54;20491;-75
2022/02/11 08:22:19;;;;;;;12.13;3.20;;;;;;;;;;2614155;54;21414;-75
2022/02/11 08:24:46;;;;;;;6.53;3.03;;;;;;;;;;2614847;54;20458;-76
2022/02/11 08:27:14;;;;;;;10.67;3.13;;;;;;;;;;2613890;39;20813;-76
2022/02/11 08:29:44;;;;;;;13.23;3.37;;;;;;;;;;2614693;54;20455;-76
2022/02/11 08:32:11;;;;;;;14.03;3.20;;;;;;;;;;2613530;49;20407;-75
2022/02/11 08:34:42;;;;;;;10.73;2.70;;;;;;;;;;2613322;54;20419;-76
2022/02/11 08:37:08;;;;;;;15.73;3.33;;;;;;;;;;2614190;47;20407;-76
2022/02/11 08:39:38;;;;;;;10.23;2.57;;;;;;;;;;2613832;47;20830;-76
2022/02/11 08:42:04;;;;;;;13.53;3.47;;;;;;;;;;2614784;39;20937;-76
2022/02/11 08:44:30;;;;;;;9.80;2.43;;;;;;;;;;2613828;47;20416;-75
2022/02/11 08:46:57;;;;;;;7.93;3.63;;;;;;;;;;2613992;31;20884;-76
2022/02/11 08:49:23;;;;;;;10.87;3.53;;;;;;;;;;2613513;51;20415;-75
2022/02/11 08:51:49;;;;;;;12.80;3.30;;;;;;;;;;2613955;47;20447;-76
2022/02/11 08:54:15;;;;;;;14.53;3.40;;;;;;;;;;2614727;54;20423;-76
2022/02/11 08:56:41;;;;;;;13.10;4.33;;;;;;;;;;2613895;54;21309;-75
2022/02/11 08:59:09;;;;;;;6.13;2.93;;;;;;;;;;2613737;47;20416;-75
2022/02/11 09:01:35;;;;;;;9.27;3.27;;;;;;;;;;2614110;54;20412;-76
2022/02/11 09:04:02;;;;;;;18.33;3.37;;;;;;;;;;2613192;54;20458;-76
2022/02/11 09:06:28;;;;;;;14.10;4.30;;;;;;;;;;2614023;47;20437;-75
2022/02/11 09:08:55;;;;;;;12.30;3.43;;;;;;;;;;2614274;54;20427;-76
2022/02/11 09:11:21;;;;;;;11.47;3.40;;;;;;;;;;2613434;54;21098;-77
2022/02/11 09:13:48;;;;;;;14.60;4.00;;;;;;;;;;2613442;54;20423;-76
2022/02/11 09:16:14;;;;;;;11.63;3.70;;;;;;;;;;2612553;47;20391;-76
2022/02/11 09:18:41;;;;;;;10.00;3.17;;;;;;;;;;2613073;51;20546;-76
2022/02/11 09:21:07;;;;;;;9.53;3.77;;;;;;;;;;2614610;54;20464;-76
2022/02/11 09:23:34;;;;;;;10.43;3.13;;;;;;;;;;2613658;54;20431;-76
2022/02/11 09:26:02;;;;;;;17.20;3.80;;;;;;;;;;2613957;54;20520;-76
2022/02/11 09:28:28;;;;;;;14.50;3.60;;;;;;;;;;2613732;39;21246;-76
2022/02/11 09:30:54;;;;;;;14.70;3.67;;;;;;;;;;2612129;51;20432;-76
2022/02/11 09:33:20;;;;;;;13.57;3.40;;;;;;;;;;2613093;54;20427;-76
2022/02/11 09:35:49;;;;;;;8.30;3.10;;;;;;;;;;2613886;54;20462;-76
2022/02/11 09:38:16;;;;;;;18.93;3.50;;;;;;;;;;2613566;54;20411;-76
2022/02/11 09:40:46;;;;;;;12.40;4.60;;;;;;;;;;2614853;54;20420;-76
2022/02/11 09:43:13;;;;;;;8.43;2.93;;;;;;;;;;2614478;46;20423;-76
2022/02/11 09:45:42;;;;;;;9.90;3.37;;;;;;;;;;2614128;54;20429;-77
2022/02/11 09:48:08;;;;;;;12.50;4.00;;;;;;;;;;2614945;54;20396;-76
2022/02/11 09:50:34;;;;;;;11.93;3.40;;;;;;;;;;2614531;54;20791;-76
2022/02/11 09:53:01;;;;;;;11.00;6.07;;;;;;;;;;2614191;47;20485;-76
2022/02/11 09:55:34;;;;;;;9.53;3.63;;;;;;;;;;2614475;39;21129;-76
2022/02/11 09:58:01;;;;;;;7.97;3.03;;;;;;;;;;2614502;47;20411;-76
2022/02/11 10:00:27;;;;;;;16.23;3.80;;;;;;;;;;2615441;54;20414;-76
2022/02/11 10:02:55;;;;;;;11.07;3.40;;;;;;;;;;2614061;47;20423;-76
2022/02/11 10:05:21;;;;;;;17.47;3.73;;;;;;;;;;2614055;47;20426;-78
2022/02/11 10:07:48;;;;;;;11.97;3.40;;;;;;;;;;2615187;39;20811;-76
2022/02/11 10:10:18;;;;;;;17.33;3.47;;;;;;;;;;2613195;47;20442;-76
2022/02/11 10:12:45;;;;;;;9.53;3.03;;;;;;;;;;2614073;47;20419;-76
2022/02/11 10:15:21;;;;;;;11.43;3.57;;;;;;;;;;2614957;54;20475;-76
2022/02/11 10:17:47;;;;;;;15.27;4.30;;;;;;;;;;2614126;54;20986;-77
2022/02/11 10:20:14;;;;;;;10.90;3.57;;;;;;;;;;2614938;54;20498;-77
2022/02/11 10:22:40;;;;;;;15.10;4.87;;;;;;;;;;2614326;47;20420;-77
2022/02/11 10:25:07;;;;;;;9.70;3.13;;;;;;;;;;2613558;54;20445;-76
2022/02/11 10:27:34;;;;;;;8.17;3.20;;;;;;;;;;2614891;54;20484;-76
2022/02/11 10:30:02;;;;;;;15.57;3.30;;;;;;;;;;2615171;31;20901;-76
2022/02/11 10:32:48;;;;;;;14.70;4.03;;;;;;;;;;2614987;54;20479;-76
2022/02/11 10:35:16;;;;;;;15.60;3.83;;;;;;;;;;2615073;54;20423;-77
2022/02/11 10:38:01;;;;;;;10.40;3.93;;;;;;;;;;2615075;54;20474;-77
2022/02/11 10:40:30;;;;;;;13.90;3.90;;;;;;;;;;2613693;47;20432;-77
2022/02/11 10:42:57;;;;;;;17.43;4.37;;;;;;;;;;2615905;31;20941;-77
2022/02/11 10:45:37;;;;;;;10.20;3.90;;;;;;;;;;2614885;31;20902;-78
2022/02/11 10:48:10;;;;;;;13.77;3.73;;;;;;;;;;2615884;39;21241;-77
2022/02/11 10:50:36;;;;;;;12.70;3.53;;;;;;;;;;2613722;54;20411;-77
2022/02/11 10:53:03;;;;;;;7.43;3.07;;;;;;;;;;2614719;47;20422;-77
2022/02/11 10:55:29;;;;;;;16.03;3.47;;;;;;;;;;2614667;39;20818;-77
2022/02/11 10:57:58;;;;;;;11.30;4.03;;;;;;;;;;2614418;39;20844;-77
2022/02/11 11:00:25;;;;;;;16.80;4.80;;;;;;;;;;2613875;54;20435;-77
2022/02/11 11:02:53;;;;;;;8.20;3.50;;;;;;;;;;2613616;47;20423;-77
2022/02/11 11:05:20;;;;;;;12.67;3.93;;;;;;;;;;2614453;31;20969;-77
2022/02/11 11:07:47;;;;;;;13.27;4.40;;;;;;;;;;2613101;46;20408;-77
2022/02/11 11:10:14;;;;;;;7.60;3.40;;;;;;;;;;2614469;54;20443;-77
2022/02/11 11:12:53;;;;;;;8.10;3.77;;;;;;;;;;2613631;39;20470;-77
2022/02/11 11:15:22;;;;;;;13.93;3.63;;;;;;;;;;2613286;54;20506;-77
2022/02/11 11:17:49;;;;;;;8.80;3.73;;;;;;;;;;2613794;47;20442;-77
2022/02/11 11:20:19;;;;;;;5.13;2.90;;;;;;;;;;2614136;47;20444;-78
2022/02/11 11:22:46;;;;;;;17.43;3.87;;;;;;;;;;2614497;47;20423;-77
2022/02/11 11:25:12;;;;;;;10.30;3.67;;;;;;;;;;2615581;54;20420;-77
2022/02/11 11:27:46;;;;;;;7.27;3.60;;;;;;;;;;2614216;54;20411;-77
2022/02/11 11:30:21;;;;;;;11.53;3.60;;;;;;;;;;2614464;46;20645;-77
2022/02/11 11:33:06;;;;;;;7.63;3.83;;;;;;;;;;2614215;51;20430;-77
2022/02/11 11:35:33;;;;;;;13.80;4.70;;;;;;;;;;2614931;54;20423;-77
2022/02/11 11:38:12;;;;;;;8.70;3.70;;;;;;;;;;2613598;54;20418;-78
2022/02/11 11:40:38;;;;;;;14.50;3.50;;;;;;;;;;2614450;47;20462;-77
2022/02/11 11:43:15;;;;;;;13.83;3.43;;;;;;;;;;2613929;39;20657;-77
2022/02/11 11:45:43;;;;;;;12.80;4.30;;;;;;;;;;2614000;46;20423;-76
2022/02/11 11:48:14;;;;;;;16.37;3.60;;;;;;;;;;2613574;47;20419;-77
2022/02/11 11:50:45;;;;;;;6.13;2.80;;;;;;;;;;2614328;54;20419;-77
2022/02/11 11:53:27;;;;;;;8.17;3.00;;;;;;;;;;2615062;54;20511;-77
2022/02/11 11:55:54;;;;;;;9.87;3.60;;;;;;;;;;2614193;54;20439;-77
2022/02/11 11:58:44;;;;;;;6.97;2.30;;;;;;;;;;2614151;54;20422;-77
2022/02/11 12:01:18;;;;;;;10.90;3.07;;;;;;;;;;2614681;54;20408;-77
2022/02/11 12:04:04;;;;;;;13.30;3.37;;;;;;;;;;2614844;54;20426;-77
2022/02/11 12:06:32;;;;;;;15.03;2.83;;;;;;;;;;2615091;54;20424;-77
2022/02/11 12:08:58;;;;;;;7.37;2.87;;;;;;;;;;2613635;47;20462;-77
2022/02/11 12:11:26;;;;;;;8.03;3.60;;;;;;;;;;2613354;54;20423;-77
2022/02/11 12:13:52;;;;;;;13.50;3.80;;;;;;;;;;2613784;54;20486;-78
2022/02/11 12:16:18;;;;;;;8.17;3.27;;;;;;;;;;2613708;54;20428;-77
2022/02/11 12:18:47;;;;;;;7.67;3.03;;;;;;;;;;2614504;54;20459;-79
2022/02/11 12:21:13;;;;;;;10.60;3.13;;;;;;;;;;2614256;54;20458;-78
2022/02/11 12:29:10;;;;;;;4.53;2.50;;;;;;;;;;2614830;54;20440;-77
2022/02/11 12:31:38;;;;;;;6.47;2.80;;;;;;;;;;2613941;54;21274;-77
2022/02/11 12:34:16;;;;;;;5.30;2.50;;;;;;;;;;2613458;54;20408;-77
2022/02/11 12:36:43;;;;;;;9.37;3.77;;;;;;;;;;2614734;54;20900;-77
2022/02/11 12:39:30;;;;;;;5.50;2.50;;;;;;;;;;2614739;54;20503;-76
2022/02/11 12:41:57;;;;;;;7.87;2.80;;;;;;;;;;2614524;54;20399;-77
2022/02/11 12:44:28;;;;;;;8.43;2.93;;;;;;;;;;2613049;47;20431;-78
2022/02/11 12:46:55;;;;;;;12.67;3.27;;;;;;;;;;2614213;54;20968;-76
2022/02/11 12:49:22;;;;;;;3.83;2.73;;;;;;;;;;2614132;54;20420;-77
2022/02/11 12:51:49;;;;;;;8.20;2.90;;;;;;;;;;2614221;54;20400;-77
2022/02/11 12:54:19;;;;;;;7.30;3.60;;;;;;;;;;2614109;39;20968;-77
2022/02/11 12:56:45;;;;;;;6.60;3.40;;;;;;;;;;2614312;47;20419;-78
2022/02/11 12:59:12;;;;;;;4.97;2.50;;;;;;;;;;2615324;31;20870;-76
2022/02/11 13:01:38;;;;;;;6.00;3.33;;;;;;;;;;2614382;47;20444;-76
2022/02/11 13:04:04;;;;;;;10.97;3.70;;;;;;;;;;2613351;47;21281;-77
2022/02/11 13:06:34;;;;;;;3.70;2.67;;;;;;;;;;2615036;54;20423;-77
2022/02/11 13:09:01;;;;;;;4.73;2.33;;;;;;;;;;2614130;39;21056;-77
2022/02/11 13:11:28;;;;;;;5.10;3.20;;;;;;;;;;2613655;47;20420;-77
2022/02/11 13:14:07;;;;;;;4.63;2.70;;;;;;;;;;2614693;54;20420;-77
2022/02/11 13:16:34;;;;;;;7.10;3.13;;;;;;;;;;2614746;54;20403;-78
2022/02/11 13:19:14;;;;;;;9.77;6.40;;;;;;;;;;2614372;54;20428;-77
2022/02/11 13:21:41;;;;;;;10.30;4.17;;;;;;;;;;2614916;54;20414;-77
2022/02/11 13:24:08;;;;;;;10.53;4.17;;;;;;;;;;2613800;47;20519;-77
2022/02/11 13:26:35;;;;;;;7.77;3.40;;;;;;;;;;2614514;54;20454;-77
2022/02/11 13:29:01;;;;;;;9.63;3.73;;;;;;;;;;2612683;54;20440;-76
2022/02/11 13:31:29;;;;;;;11.93;5.00;;;;;;;;;;2613573;54;21406;-78
2022/02/11 13:34:02;;;;;;;8.00;4.50;;;;;;;;;;2613916;47;20542;-79
2022/02/11 13:36:29;;;;;;;12.97;4.57;;;;;;;;;;2613856;54;20443;-77
2022/02/11 13:38:59;;;;;;;14.50;4.10;;;;;;;;;;2613695;47;20430;-77
2022/02/11 13:41:38;;;;;;;8.13;3.27;;;;;;;;;;2614361;47;20446;-77
2022/02/11 13:44:14;;;;;;;9.10;3.10;;;;;;;;;;2613987;39;20916;-77
2022/02/11 13:46:42;;;;;;;17.50;6.20;;;;;;;;;;2614143;47;20466;-77
2022/02/11 13:49:15;;;;;;;12.70;7.10;;;;;;;;;;2613633;47;20415;-78
2022/02/11 13:54:56;;;;;;;12.40;4.00;;;;;;;;;;2614148;47;20450;-78
2022/02/11 13:57:22;;;;;;;6.83;4.47;;;;;;;;;;2613659;54;20422;-78
2022/02/11 13:59:49;;;;;;;18.80;4.33;;;;;;;;;;2613731;47;20467;-78
2022/02/11 14:02:19;;;;;;;9.40;4.70;;;;;;;;;;2613624;54;20415;-77
2022/02/11 14:04:46;;;;;;;7.83;3.80;;;;;;;;;;2613947;39;20809;-78
2022/02/11 14:07:15;;;;;;;6.20;3.60;;;;;;;;;;2613582;54;20412;-78
2022/02/11 14:09:42;;;;;;;5.97;3.07;;;;;;;;;;2613743;39;20803;-78
2022/02/11 14:12:16;;;;;;;9.00;3.20;;;;;;;;;;2613583;47;20444;-78
2022/02/11 14:14:53;;;;;;;9.03;3.67;;;;;;;;;;2612914;47;20430;-79
2022/02/11 14:17:19;;;;;;;13.87;4.50;;;;;;;;;;2613583;47;20424;-77
2022/02/11 14:19:46;;;;;;;8.23;3.70;;;;;;;;;;2612998;47;20475;-78
2022/02/11 14:22:13;;;;;;;10.07;4.80;;;;;;;;;;2614456;54;20543;-79
2022/02/11 14:24:39;;;;;;;14.80;3.73;;;;;;;;;;2613397;54;20432;-78
2022/02/11 14:27:07;;;;;;;9.50;3.77;;;;;;;;;;2615319;54;20500;-78
2022/02/11 14:29:33;;;;;;;18.57;3.90;;;;;;;;;;2613963;39;20537;-77
2022/02/11 14:31:59;;;;;;;9.23;3.40;;;;;;;;;;2614733;54;20475;-78
2022/02/11 14:34:26;;;;;;;15.17;2.80;;;;;;;;;;2613588;39;20826;-77
2022/02/11 14:36:52;;;;;;;7.27;4.40;;;;;;;;;;2614653;54;20975;-78
2022/02/11 14:39:18;;;;;;;3.20;2.90;;;;;;;;;;2613835;54;20423;-78
2022/02/11 14:41:46;;;;;;;6.27;3.33;;;;;;;;;;2614052;54;20419;-78
2022/02/11 14:44:16;;;;;;;8.80;3.20;;;;;;;;;;2613935;47;20431;-79
2022/02/11 14:46:43;;;;;;;8.20;3.40;;;;;;;;;;2614488;39;21205;-77
2022/02/11 14:49:10;;;;;;;4.70;3.13;;;;;;;;;;2613961;47;20450;-78
2022/02/11 14:51:37;;;;;;;8.47;3.53;;;;;;;;;;2614379;47;20428;-77
2022/02/11 14:54:08;;;;;;;6.77;3.60;;;;;;;;;;2613829;47;20444;-78
2022/02/11 14:56:35;;;;;;;9.43;3.37;;;;;;;;;;2614215;39;21191;-77
2022/02/11 14:59:02;;;;;;;7.13;3.20;;;;;;;;;;2614111;54;20419;-77
2022/02/11 15:01:28;;;;;;;8.47;3.73;;;;;;;;;;2614255;47;20427;-78
2022/02/11 15:03:56;;;;;;;7.43;2.80;;;;;;;;;;2614788;54;20419;-77
2022/02/11 15:06:23;;;;;;;8.70;3.57;;;;;;;;;;2614705;54;20478;-77
2022/02/11 15:08:49;;;;;;;7.77;3.33;;;;;;;;;;2614588;39;20943;-77
2022/02/11 15:11:17;;;;;;;10.23;3.13;;;;;;;;;;2613761;46;20475;-78
2022/02/11 15:13:43;;;;;;;5.20;3.20;;;;;;;;;;2613545;47;20435;-77
2022/02/11 15:16:09;;;;;;;5.73;2.80;;;;;;;;;;2614436;54;20462;-77
2022/02/11 15:18:37;;;;;;;7.90;2.97;;;;;;;;;;2614097;54;20427;-78
2022/02/11 15:21:06;;;;;;;7.67;2.67;;;;;;;;;;2613882;47;20433;-77
2022/02/11 15:23:33;;;;;;;2.87;2.60;;;;;;;;;;2614228;54;20964;-77
2022/02/11 15:26:02;;;;;;;6.20;2.97;;;;;;;;;;2613911;39;20819;-78
2022/02/11 15:28:29;;;;;;;6.63;3.40;;;;;;;;;;2613763;46;20464;-78
2022/02/11 15:30:55;;;;;;;4.90;2.87;;;;;;;;;;2614523;46;20490;-77
2022/02/11 15:33:22;;;;;;;5.40;2.93;;;;;;;;;;2613574;54;20438;-78
2022/02/11 15:35:48;;;;;;;4.60;3.00;;;;;;;;;;2613612;39;20851;-78
2022/02/11 15:38:14;;;;;;;5.10;2.53;;;;;;;;;;2614253;54;20437;-77
2022/02/11 15:40:40;;;;;;;5.93;3.07;;;;;;;;;;2613485;54;20430;-77
2022/02/11 15:43:06;;;;;;;3.10;2.90;;;;;;;;;;2614332;47;20442;-78
2022/02/11 15:45:33;;;;;;;5.73;3.30;;;;;;;;;;2613672;47;20534;-78
2022/02/11 15:47:59;;;;;;;7.67;5.57;;;;;;;;;;2613639;54;20508;-77
2022/02/11 15:50:26;;;;;;;5.20;3.17;;;;;;;;;;2614000;54;20437;-78
2022/02/11 15:52:52;;;;;;;6.23;3.60;;;;;;;;;;2613041;54;20427;-78
2022/02/11 15:55:23;;;;;;;3.77;3.07;;;;;;;;;;2614026;54;20551;-77
2022/02/11 15:57:49;;;;;;;4.50;2.83;;;;;;;;;;2614430;54;20423;-78
2022/02/11 16:00:17;;;;;;;5.90;3.50;;;;;;;;;;2614051;47;20526;-78
2022/02/11 16:02:46;;;;;;;8.83;5.00;;;;;;;;;;2614028;54;20759;-77
2022/02/11 16:05:12;;;;;;;4.60;3.77;;;;;;;;;;2614267;54;20515;-78
2022/02/11 16:07:39;;;;;;;6.17;3.93;;;;;;;;;;2613853;54;20411;-78
2022/02/11 16:10:06;;;;;;;8.30;4.27;;;;;;;;;;2613725;51;20523;-77
2022/02/11 16:12:32;;;;;;;9.83;6.50;;;;;;;;;;2613709;47;20415;-77
2022/02/11 16:15:00;;;;;;;10.80;5.83;;;;;;;;;;2614687;54;20427;-78
2022/02/11 16:17:27;;;;;;;10.67;7.53;;;;;;;;;;2613445;54;20470;-77
2022/02/11 16:19:54;;;;;;;6.70;4.80;;;;;;;;;;2613844;47;20523;-77
2022/02/11 16:22:23;;;;;;;5.20;4.33;;;;;;;;;;2613548;47;20427;-78
2022/02/11 16:24:50;;;;;;;8.23;4.40;;;;;;;;;;2613507;47;20408;-78
2022/02/11 16:27:17;;;;;;;5.80;5.03;;;;;;;;;;2613781;54;20411;-77
2022/02/11 16:29:44;;;;;;;12.70;4.73;;;;;;;;;;2613472;54;20518;-78
2022/02/11 16:32:12;;;;;;;8.43;4.77;;;;;;;;;;2613585;54;20406;-78
2022/02/11 16:34:40;;;;;;;6.53;4.40;;;;;;;;;;2613791;54;20409;-78
2022/02/11 16:37:09;;;;;;;6.87;3.73;;;;;;;;;;2614068;47;20458;-78
2022/02/11 16:39:36;;;;;;;6.23;3.90;;;;;;;;;;2613184;47;20983;-78
2022/02/11 16:42:03;;;;;;;9.80;4.43;;;;;;;;;;2612139;47;20419;-78
2022/02/11 16:44:29;;;;;;;6.10;3.10;;;;;;;;;;2614116;54;20420;-78
2022/02/11 16:46:55;;;;;;;10.67;3.00;;;;;;;;;;2613944;50;20487;-77
2022/02/11 16:49:23;;;;;;;7.13;3.57;;;;;;;;;;2613800;54;20409;-76
2022/02/11 16:51:49;;;;;;;9.57;4.03;;;;;;;;;;2614230;39;20803;-78
2022/02/11 16:54:15;;;;;;;13.63;4.20;;;;;;;;;;2613959;54;20438;-77
2022/02/11 16:56:41;;;;;;;4.80;3.17;;;;;;;;;;2613757;47;20597;-76
2022/02/11 16:59:09;;;;;;;9.43;3.90;;;;;;;;;;2613752;54;20423;-76
2022/02/11 17:01:35;;;;;;;5.10;3.50;;;;;;;;;;2613695;54;20424;-77
2022/02/11 17:04:02;;;;;;;4.27;2.73;;;;;;;;;;2613500;54;20403;-77
2022/02/11 17:06:30;;;;;;;6.13;3.07;;;;;;;;;;2614790;54;20418;-78
2022/02/11 17:08:58;;;;;;;8.47;3.03;;;;;;;;;;2613602;47;20462;-77
2022/02/11 17:11:25;;;;;;;12.27;3.60;;;;;;;;;;2613984;47;20422;-78
2022/02/11 17:13:52;;;;;;;9.37;3.20;;;;;;;;;;2613814;47;20526;-77
2022/02/11 17:16:19;;;;;;;6.13;2.97;;;;;;;;;;2613034;47;20991;-77
2022/02/11 17:18:45;;;;;;;6.40;2.87;;;;;;;;;;2614261;54;20528;-78
2022/02/11 17:21:11;;;;;;;8.30;2.40;;;;;;;;;;2614212;39;20889;-78
2022/02/11 17:23:37;;;;;;;11.27;3.57;;;;;;;;;;2614010;54;20447;-78
2022/02/11 17:26:05;;;;;;;4.10;3.30;;;;;;;;;;2613299;39;20813;-77
2022/02/11 17:28:31;;;;;;;3.77;3.10;;;;;;;;;;2613213;47;20431;-77
2022/02/11 17:30:57;;;;;;;4.57;3.20;;;;;;;;;;2614156;47;20459;-77
2022/02/11 17:33:25;;;;;;;9.10;4.43;;;;;;;;;;2614092;54;20428;-77
2022/02/11 17:35:51;;;;;;;9.20;3.37;;;;;;;;;;2613380;54;20439;-77
2022/02/11 17:38:18;;;;;;;6.30;3.03;;;;;;;;;;2613220;47;20427;-79
2022/02/11 17:40:44;;;;;;;3.30;3.00;;;;;;;;;;2613537;54;20427;-78
2022/02/11 17:43:14;;;;;;;11.47;5.40;;;;;;;;;;2613568;47;20531;-76
2022/02/11 17:45:41;;;;;;;7.23;6.53;;;;;;;;;;2614270;39;20812;-79
2022/02/11 17:48:07;;;;;;;8.37;7.27;;;;;;;;;;2613298;54;21085;-78
2022/02/11 17:50:34;;;;;;;7.67;6.80;;;;;;;;;;2613142;47;20440;-79
2022/02/11 17:53:00;;;;;;;10.40;6.63;;;;;;;;;;2613668;54;20416;-77
2022/02/11 17:55:28;;;;;;;7.17;5.70;;;;;;;;;;2612557;54;20453;-78
2022/02/11 17:57:55;;;;;;;10.27;6.90;;;;;;;;;;2613331;54;20435;-78
2022/02/11 18:00:22;;;;;;;8.43;6.90;;;;;;;;;;2614454;54;20424;-78
2022/02/11 18:02:48;;;;;;;15.07;7.60;;;;;;;;;;2614397;54;20517;-76
2022/02/11 18:05:19;;;;;;;7.80;4.57;;;;;;;;;;2614631;47;21003;-77
2022/02/11 18:07:56;;;;;;;9.00;4.93;;;;;;;;;;2614158;54;20415;-78
2022/02/11 18:10:23;;;;;;;12.47;6.00;;;;;;;;;;2615101;54;20999;-77
2022/02/11 18:12:50;;;;;;;9.37;5.57;;;;;;;;;;2614205;46;20416;-77
2022/02/11 18:15:17;;;;;;;10.60;5.67;;;;;;;;;;2614559;54;20423;-77
2022/02/11 18:17:44;;;;;;;8.83;5.40;;;;;;;;;;2615567;46;20457;-78
2022/02/11 18:20:11;;;;;;;10.00;6.37;;;;;;;;;;2613862;54;20443;-77
2022/02/11 18:22:38;;;;;;;13.27;7.07;;;;;;;;;;2614494;47;20498;-78
2022/02/11 18:25:05;;;;;;;13.03;5.30;;;;;;;;;;2614435;47;20454;-78
2022/02/11 18:27:31;;;;;;;8.97;5.20;;;;;;;;;;2614642;54;20411;-77
2022/02/11 18:29:58;;;;;;;31.03;7.30;;;;;;;;;;2612940;54;20455;-78
2022/02/11 18:32:24;;;;;;;7.77;5.87;;;;;;;;;;2613384;54;20407;-77
2022/02/11 18:34:50;;;;;;;8.20;7.30;;;;;;;;;;2614469;54;20427;-78
2022/02/11 18:37:16;;;;;;;11.27;6.70;;;;;;;;;;2614954;54;20419;-77
2022/02/11 18:39:42;;;;;;;19.20;7.70;;;;;;;;;;2613557;47;20988;-77